sensor_id;sensor_type;location;lat;lon;timestamp;temperature;humidity
7254;DHT22;4060;49.186;9.226;2023-08-24T00:01:13;31.90;38.10
7254;DHT22;4060;49.186;9.226;2023-08-24T00:03:44;31.90;38.10
7254;DHT22;4060;49.186;9.226;2023-08-24T00:06:16;31.80;38.20
7254;DHT22;4060;49.186;9.226;2023-08-24T00:08:46;31.80;38.20
7254;DHT22;4060;49.186;9.226;2023-08-24T00:11:15;31.80;38.30
7254;DHT22;4060;49.186;9.226;2023-08-24T00:13:44;31.80;38.30
7254;DHT22;4060;49.186;9.226;2023-08-24T00:16:16;31.70;38.40
7254;DHT22;4060;49.186;9.226;2023-08-24T00:18:46;31.70;38.40
7254;DHT22;4060;49.186;9.226;2023-08-24T00:21:18;31.70;38.50
7254;DHT22;4060;49.186;9.226;2023-08-24T00:23:49;31.70;38.60
7254;DHT22;4060;49.186;9.226;2023-08-24T00:26:19;31.70;38.60
7254;DHT22;4060;49.186;9.226;2023-08-24T00:28:49;31.60;38.60
7254;DHT22;4060;49.186;9.226;2023-08-24T00:31:18;31.60;38.70
7254;DHT22;4060;49.186;9.226;2023-08-24T00:33:48;31.50;38.70
7254;DHT22;4060;49.186;9.226;2023-08-24T00:36:19;31.50;38.70
7254;DHT22;4060;49.186;9.226;2023-08-24T00:38:50;31.50;38.80
7254;DHT22;4060;49.186;9.226;2023-08-24T00:41:20;31.50;38.90
7254;DHT22;4060;49.186;9.226;2023-08-24T00:43:52;31.50;38.90
7254;DHT22;4060;49.186;9.226;2023-08-24T00:46:22;31.40;39.00
7254;DHT22;4060;49.186;9.226;2023-08-24T00:48:54;31.40;39.00
7254;DHT22;4060;49.186;9.226;2023-08-24T00:51:28;31.40;39.00
7254;DHT22;4060;49.186;9.226;2023-08-24T00:53:57;31.40;39.60
7254;DHT22;4060;49.186;9.226;2023-08-24T00:56:27;31.30;39.10
7254;DHT22;4060;49.186;9.226;2023-08-24T00:58:58;31.30;39.10
7254;DHT22;4060;49.186;9.226;2023-08-24T01:01:27;31.30;39.20
7254;DHT22;4060;49.186;9.226;2023-08-24T01:03:57;31.30;39.20
7254;DHT22;4060;49.186;9.226;2023-08-24T01:06:28;31.20;39.20
7254;DHT22;4060;49.186;9.226;2023-08-24T01:08:58;31.20;39.30
7254;DHT22;4060;49.186;9.226;2023-08-24T01:11:35;31.20;39.30
7254;DHT22;4060;49.186;9.226;2023-08-24T01:14:18;31.10;39.40
7254;DHT22;4060;49.186;9.226;2023-08-24T01:16:52;31.10;39.50
7254;DHT22;4060;49.186;9.226;2023-08-24T01:19:36;31.10;39.50
7254;DHT22;4060;49.186;9.226;2023-08-24T01:22:27;31.10;39.60
7254;DHT22;4060;49.186;9.226;2023-08-24T01:25:06;31.00;39.70
7254;DHT22;4060;49.186;9.226;2023-08-24T01:27:38;31.00;39.70
7254;DHT22;4060;49.186;9.226;2023-08-24T01:30:09;31.00;39.80
7254;DHT22;4060;49.186;9.226;2023-08-24T01:32:39;31.00;39.90
7254;DHT22;4060;49.186;9.226;2023-08-24T01:35:10;30.90;39.90
7254;DHT22;4060;49.186;9.226;2023-08-24T01:37:40;30.90;40.00
7254;DHT22;4060;49.186;9.226;2023-08-24T01:40:13;30.90;40.00
7254;DHT22;4060;49.186;9.226;2023-08-24T01:42:51;30.90;40.10
7254;DHT22;4060;49.186;9.226;2023-08-24T01:45:24;30.80;40.20
7254;DHT22;4060;49.186;9.226;2023-08-24T01:47:55;30.80;40.20
7254;DHT22;4060;49.186;9.226;2023-08-24T01:50:25;30.80;40.30
7254;DHT22;4060;49.186;9.226;2023-08-24T01:52:54;30.80;40.30
7254;DHT22;4060;49.186;9.226;2023-08-24T01:55:24;30.70;40.30
7254;DHT22;4060;49.186;9.226;2023-08-24T01:57:56;30.70;40.40
7254;DHT22;4060;49.186;9.226;2023-08-24T02:00:25;30.70;40.50
7254;DHT22;4060;49.186;9.226;2023-08-24T02:02:55;30.60;40.50
7254;DHT22;4060;49.186;9.226;2023-08-24T02:05:25;30.60;40.50
7254;DHT22;4060;49.186;9.226;2023-08-24T02:07:56;30.60;40.60
7254;DHT22;4060;49.186;9.226;2023-08-24T02:10:26;30.60;40.60
7254;DHT22;4060;49.186;9.226;2023-08-24T02:12:57;30.60;40.70
7254;DHT22;4060;49.186;9.226;2023-08-24T02:15:27;30.50;40.70
7254;DHT22;4060;49.186;9.226;2023-08-24T02:17:56;30.50;40.70
7254;DHT22;4060;49.186;9.226;2023-08-24T02:20:26;30.50;40.70
7254;DHT22;4060;49.186;9.226;2023-08-24T02:22:55;30.50;40.80
7254;DHT22;4060;49.186;9.226;2023-08-24T02:25:24;30.40;40.80
7254;DHT22;4060;49.186;9.226;2023-08-24T02:27:54;30.50;40.90
7254;DHT22;4060;49.186;9.226;2023-08-24T02:30:25;30.40;40.90
7254;DHT22;4060;49.186;9.226;2023-08-24T02:32:54;30.40;41.00
7254;DHT22;4060;49.186;9.226;2023-08-24T02:35:24;30.30;40.90
7254;DHT22;4060;49.186;9.226;2023-08-24T02:37:53;30.30;41.00
7254;DHT22;4060;49.186;9.226;2023-08-24T02:40:24;30.30;41.00
7254;DHT22;4060;49.186;9.226;2023-08-24T02:42:53;30.30;41.10
7254;DHT22;4060;49.186;9.226;2023-08-24T02:45:25;30.30;41.60
7254;DHT22;4060;49.186;9.226;2023-08-24T02:47:54;30.30;41.10
7254;DHT22;4060;49.186;9.226;2023-08-24T02:50:23;30.20;41.10
7254;DHT22;4060;49.186;9.226;2023-08-24T02:52:53;30.20;41.20
7254;DHT22;4060;49.186;9.226;2023-08-24T02:55:23;30.20;41.20
7254;DHT22;4060;49.186;9.226;2023-08-24T02:57:52;30.10;41.20
7254;DHT22;4060;49.186;9.226;2023-08-24T03:00:21;30.20;41.30
7254;DHT22;4060;49.186;9.226;2023-08-24T03:02:52;30.10;41.30
7254;DHT22;4060;49.186;9.226;2023-08-24T03:05:22;30.10;41.30
7254;DHT22;4060;49.186;9.226;2023-08-24T03:07:51;30.10;41.40
7254;DHT22;4060;49.186;9.226;2023-08-24T03:10:21;30.10;41.30
7254;DHT22;4060;49.186;9.226;2023-08-24T03:12:50;30.00;41.30
7254;DHT22;4060;49.186;9.226;2023-08-24T03:15:20;30.00;41.40
7254;DHT22;4060;49.186;9.226;2023-08-24T03:17:51;30.00;41.40
7254;DHT22;4060;49.186;9.226;2023-08-24T03:20:21;30.00;41.40
7254;DHT22;4060;49.186;9.226;2023-08-24T03:22:51;29.90;41.40
7254;DHT22;4060;49.186;9.226;2023-08-24T03:25:20;29.90;41.40
7254;DHT22;4060;49.186;9.226;2023-08-24T03:27:50;29.90;41.40
7254;DHT22;4060;49.186;9.226;2023-08-24T03:30:19;29.90;41.40
7254;DHT22;4060;49.186;9.226;2023-08-24T03:32:51;29.80;41.40
7254;DHT22;4060;49.186;9.226;2023-08-24T03:35:20;29.80;41.50
7254;DHT22;4060;49.186;9.226;2023-08-24T03:37:50;29.80;41.50
7254;DHT22;4060;49.186;9.226;2023-08-24T03:40:20;29.80;41.60
7254;DHT22;4060;49.186;9.226;2023-08-24T03:42:49;29.70;41.60
7254;DHT22;4060;49.186;9.226;2023-08-24T03:45:20;29.70;41.60
7254;DHT22;4060;49.186;9.226;2023-08-24T03:47:49;29.70;41.70
7254;DHT22;4060;49.186;9.226;2023-08-24T03:50:20;29.70;41.70
7254;DHT22;4060;49.186;9.226;2023-08-24T03:52:50;29.70;41.80
7254;DHT22;4060;49.186;9.226;2023-08-24T03:55:22;29.60;41.70
7254;DHT22;4060;49.186;9.226;2023-08-24T03:57:51;29.60;41.80
7254;DHT22;4060;49.186;9.226;2023-08-24T04:00:21;29.60;41.90
7254;DHT22;4060;49.186;9.226;2023-08-24T04:02:51;29.60;41.90
7254;DHT22;4060;49.186;9.226;2023-08-24T04:05:23;29.50;41.90
7254;DHT22;4060;49.186;9.226;2023-08-24T04:07:52;29.50;42.00
7254;DHT22;4060;49.186;9.226;2023-08-24T04:10:21;29.50;42.10
7254;DHT22;4060;49.186;9.226;2023-08-24T04:12:50;29.50;42.10
7254;DHT22;4060;49.186;9.226;2023-08-24T04:15:20;29.50;42.20
7254;DHT22;4060;49.186;9.226;2023-08-24T04:17:58;29.50;42.20
7254;DHT22;4060;49.186;9.226;2023-08-24T04:20:30;29.50;42.30
7254;DHT22;4060;49.186;9.226;2023-08-24T04:23:00;29.40;42.20
7254;DHT22;4060;49.186;9.226;2023-08-24T04:25:29;29.40;42.80
7254;DHT22;4060;49.186;9.226;2023-08-24T04:27:59;29.40;42.30
7254;DHT22;4060;49.186;9.226;2023-08-24T04:30:28;29.40;42.30
7254;DHT22;4060;49.186;9.226;2023-08-24T04:32:58;29.30;42.30
7254;DHT22;4060;49.186;9.226;2023-08-24T04:35:29;29.30;42.30
7254;DHT22;4060;49.186;9.226;2023-08-24T04:38:04;29.30;42.30
7254;DHT22;4060;49.186;9.226;2023-08-24T04:40:48;29.30;42.40
7254;DHT22;4060;49.186;9.226;2023-08-24T04:43:18;29.30;42.40
7254;DHT22;4060;49.186;9.226;2023-08-24T04:45:50;29.20;42.40
7254;DHT22;4060;49.186;9.226;2023-08-24T04:48:20;29.20;42.50
7254;DHT22;4060;49.186;9.226;2023-08-24T04:50:53;29.20;42.40
7254;DHT22;4060;49.186;9.226;2023-08-24T04:53:23;29.20;42.50
7254;DHT22;4060;49.186;9.226;2023-08-24T04:55:53;29.20;42.50
7254;DHT22;4060;49.186;9.226;2023-08-24T04:58:23;29.10;42.50
7254;DHT22;4060;49.186;9.226;2023-08-24T05:00:52;29.10;42.60
7254;DHT22;4060;49.186;9.226;2023-08-24T05:03:23;29.10;42.60
7254;DHT22;4060;49.186;9.226;2023-08-24T05:05:55;29.10;42.70
7254;DHT22;4060;49.186;9.226;2023-08-24T05:08:24;29.10;42.70
7254;DHT22;4060;49.186;9.226;2023-08-24T05:10:55;29.00;42.70
7254;DHT22;4060;49.186;9.226;2023-08-24T05:13:25;29.00;42.70
7254;DHT22;4060;49.186;9.226;2023-08-24T05:15:57;29.00;42.80
7254;DHT22;4060;49.186;9.226;2023-08-24T05:18:27;29.00;43.30
7254;DHT22;4060;49.186;9.226;2023-08-24T05:20:58;29.00;42.80
7254;DHT22;4060;49.186;9.226;2023-08-24T05:23:28;29.00;42.90
7254;DHT22;4060;49.186;9.226;2023-08-24T05:25:57;28.90;42.80
7254;DHT22;4060;49.186;9.226;2023-08-24T05:28:27;28.90;42.90
7254;DHT22;4060;49.186;9.226;2023-08-24T05:30:57;28.90;43.00
7254;DHT22;4060;49.186;9.226;2023-08-24T05:33:27;28.90;43.00
7254;DHT22;4060;49.186;9.226;2023-08-24T05:35:59;28.90;43.00
7254;DHT22;4060;49.186;9.226;2023-08-24T05:38:29;28.90;43.00
7254;DHT22;4060;49.186;9.226;2023-08-24T05:40:58;28.80;43.00
7254;DHT22;4060;49.186;9.226;2023-08-24T05:43:28;28.80;43.10
7254;DHT22;4060;49.186;9.226;2023-08-24T05:45:58;28.80;43.10
7254;DHT22;4060;49.186;9.226;2023-08-24T05:48:27;28.80;43.10
7254;DHT22;4060;49.186;9.226;2023-08-24T05:50:59;28.80;43.20
7254;DHT22;4060;49.186;9.226;2023-08-24T05:53:28;28.80;43.10
7254;DHT22;4060;49.186;9.226;2023-08-24T05:55:58;28.80;43.20
7254;DHT22;4060;49.186;9.226;2023-08-24T05:58:28;28.80;43.20
7254;DHT22;4060;49.186;9.226;2023-08-24T06:00:58;28.80;43.20
7254;DHT22;4060;49.186;9.226;2023-08-24T06:03:28;28.70;43.20
7254;DHT22;4060;49.186;9.226;2023-08-24T06:06:04;28.70;43.20
7254;DHT22;4060;49.186;9.226;2023-08-24T06:08:36;28.70;43.20
7254;DHT22;4060;49.186;9.226;2023-08-24T06:11:20;28.70;43.30
7254;DHT22;4060;49.186;9.226;2023-08-24T06:13:50;28.70;43.40
7254;DHT22;4060;49.186;9.226;2023-08-24T06:16:21;28.70;43.50
7254;DHT22;4060;49.186;9.226;2023-08-24T06:18:51;28.70;43.60
7254;DHT22;4060;49.186;9.226;2023-08-24T06:21:23;28.70;43.70
7254;DHT22;4060;49.186;9.226;2023-08-24T06:23:52;28.80;43.90
7254;DHT22;4060;49.186;9.226;2023-08-24T06:26:22;28.80;43.90
7254;DHT22;4060;49.186;9.226;2023-08-24T06:28:52;28.80;44.00
7254;DHT22;4060;49.186;9.226;2023-08-24T06:31:21;28.80;44.00
7254;DHT22;4060;49.186;9.226;2023-08-24T06:33:50;28.80;43.90
7254;DHT22;4060;49.186;9.226;2023-08-24T06:36:22;28.80;43.80
7254;DHT22;4060;49.186;9.226;2023-08-24T06:38:53;28.90;43.70
7254;DHT22;4060;49.186;9.226;2023-08-24T06:41:23;28.90;43.60
7254;DHT22;4060;49.186;9.226;2023-08-24T06:43:52;28.90;43.50
7254;DHT22;4060;49.186;9.226;2023-08-24T06:46:23;28.90;43.50
7254;DHT22;4060;49.186;9.226;2023-08-24T06:48:52;28.80;43.30
7254;DHT22;4060;49.186;9.226;2023-08-24T06:51:24;28.80;43.30
7254;DHT22;4060;49.186;9.226;2023-08-24T06:53:54;28.80;43.30
7254;DHT22;4060;49.186;9.226;2023-08-24T06:56:23;28.80;43.30
7254;DHT22;4060;49.186;9.226;2023-08-24T06:58:53;28.80;43.30
7254;DHT22;4060;49.186;9.226;2023-08-24T07:01:23;28.80;43.80
7254;DHT22;4060;49.186;9.226;2023-08-24T07:03:53;28.80;43.30
7254;DHT22;4060;49.186;9.226;2023-08-24T07:06:25;28.70;43.20
7254;DHT22;4060;49.186;9.226;2023-08-24T07:08:56;28.80;43.30
7254;DHT22;4060;49.186;9.226;2023-08-24T07:11:25;28.70;43.20
7254;DHT22;4060;49.186;9.226;2023-08-24T07:13:55;28.70;43.10
7254;DHT22;4060;49.186;9.226;2023-08-24T07:16:24;28.70;43.10
7254;DHT22;4060;49.186;9.226;2023-08-24T07:18:54;28.70;43.00
7254;DHT22;4060;49.186;9.226;2023-08-24T07:21:26;28.70;43.00
7254;DHT22;4060;49.186;9.226;2023-08-24T07:24:00;28.70;43.00
7254;DHT22;4060;49.186;9.226;2023-08-24T07:26:31;28.70;43.00
7254;DHT22;4060;49.186;9.226;2023-08-24T07:29:00;28.60;42.90
7254;DHT22;4060;49.186;9.226;2023-08-24T07:31:30;28.60;42.90
7254;DHT22;4060;49.186;9.226;2023-08-24T07:33:59;28.60;42.90
7254;DHT22;4060;49.186;9.226;2023-08-24T07:36:32;28.60;43.00
7254;DHT22;4060;49.186;9.226;2023-08-24T07:39:01;28.60;43.00
7254;DHT22;4060;49.186;9.226;2023-08-24T07:41:30;28.60;43.00
7254;DHT22;4060;49.186;9.226;2023-08-24T07:44:00;28.60;43.00
7254;DHT22;4060;49.186;9.226;2023-08-24T07:46:30;28.60;42.90
7254;DHT22;4060;49.186;9.226;2023-08-24T07:48:59;28.60;43.00
7254;DHT22;4060;49.186;9.226;2023-08-24T07:51:32;28.60;43.00
7254;DHT22;4060;49.186;9.226;2023-08-24T07:54:01;28.60;43.00
7254;DHT22;4060;49.186;9.226;2023-08-24T07:56:32;28.60;43.00
7254;DHT22;4060;49.186;9.226;2023-08-24T07:59:01;28.60;43.20
7254;DHT22;4060;49.186;9.226;2023-08-24T08:01:31;28.60;43.40
7254;DHT22;4060;49.186;9.226;2023-08-24T08:04:01;28.60;43.50
7254;DHT22;4060;49.186;9.226;2023-08-24T08:06:32;28.70;43.70
7254;DHT22;4060;49.186;9.226;2023-08-24T08:09:02;28.70;43.80
7254;DHT22;4060;49.186;9.226;2023-08-24T08:11:31;28.70;43.90
7254;DHT22;4060;49.186;9.226;2023-08-24T08:14:02;28.80;44.00
7254;DHT22;4060;49.186;9.226;2023-08-24T08:16:31;28.80;43.90
7254;DHT22;4060;49.186;9.226;2023-08-24T08:19:01;28.90;43.90
7254;DHT22;4060;49.186;9.226;2023-08-24T08:21:32;28.90;43.80
7254;DHT22;4060;49.186;9.226;2023-08-24T08:24:01;28.90;43.70
7254;DHT22;4060;49.186;9.226;2023-08-24T08:26:31;29.00;43.60
7254;DHT22;4060;49.186;9.226;2023-08-24T08:29:00;29.00;43.50
7254;DHT22;4060;49.186;9.226;2023-08-24T08:31:31;29.00;43.50
7254;DHT22;4060;49.186;9.226;2023-08-24T08:34:02;29.00;43.50
7254;DHT22;4060;49.186;9.226;2023-08-24T08:36:35;29.00;43.50
7254;DHT22;4060;49.186;9.226;2023-08-24T08:39:04;29.00;43.70
7254;DHT22;4060;49.186;9.226;2023-08-24T08:41:40;29.00;43.80
7254;DHT22;4060;49.186;9.226;2023-08-24T08:44:13;29.00;43.90
7254;DHT22;4060;49.186;9.226;2023-08-24T08:46:43;29.00;44.00
7254;DHT22;4060;49.186;9.226;2023-08-24T08:49:14;29.00;44.00
7254;DHT22;4060;49.186;9.226;2023-08-24T08:51:47;29.10;44.00
7254;DHT22;4060;49.186;9.226;2023-08-24T08:54:16;29.10;44.00
7254;DHT22;4060;49.186;9.226;2023-08-24T08:56:46;29.10;44.00
7254;DHT22;4060;49.186;9.226;2023-08-24T08:59:16;29.10;44.00
7254;DHT22;4060;49.186;9.226;2023-08-24T09:01:46;29.10;44.00
7254;DHT22;4060;49.186;9.226;2023-08-24T09:04:18;29.20;44.40
7254;DHT22;4060;49.186;9.226;2023-08-24T09:06:49;29.20;44.00
7254;DHT22;4060;49.186;9.226;2023-08-24T09:09:19;29.30;44.10
7254;DHT22;4060;49.186;9.226;2023-08-24T09:11:50;29.30;44.00
7254;DHT22;4060;49.186;9.226;2023-08-24T09:14:20;29.30;44.00
7254;DHT22;4060;49.186;9.226;2023-08-24T09:16:50;29.40;44.00
7254;DHT22;4060;49.186;9.226;2023-08-24T09:19:28;29.40;44.00
7254;DHT22;4060;49.186;9.226;2023-08-24T09:22:01;29.50;44.10
7254;DHT22;4060;49.186;9.226;2023-08-24T09:24:31;29.50;44.00
7254;DHT22;4060;49.186;9.226;2023-08-24T09:27:14;29.50;44.00
7254;DHT22;4060;49.186;9.226;2023-08-24T09:29:48;29.60;44.10
7254;DHT22;4060;49.186;9.226;2023-08-24T09:32:29;29.60;44.10
7254;DHT22;4060;49.186;9.226;2023-08-24T09:35:03;29.70;44.10
7254;DHT22;4060;49.186;9.226;2023-08-24T09:37:37;29.70;44.00
7254;DHT22;4060;49.186;9.226;2023-08-24T09:40:07;29.70;44.00
7254;DHT22;4060;49.186;9.226;2023-08-24T09:42:41;29.70;44.00
7254;DHT22;4060;49.186;9.226;2023-08-24T09:45:12;29.80;44.10
7254;DHT22;4060;49.186;9.226;2023-08-24T09:47:49;29.80;44.10
7254;DHT22;4060;49.186;9.226;2023-08-24T09:50:20;29.80;44.10
7254;DHT22;4060;49.186;9.226;2023-08-24T09:52:54;29.90;44.20
7254;DHT22;4060;49.186;9.226;2023-08-24T09:55:28;29.90;44.20
7254;DHT22;4060;49.186;9.226;2023-08-24T09:57:59;29.90;44.30
7254;DHT22;4060;49.186;9.226;2023-08-24T10:00:30;29.90;44.30
7254;DHT22;4060;49.186;9.226;2023-08-24T10:03:02;30.00;44.40
7254;DHT22;4060;49.186;9.226;2023-08-24T10:05:33;30.00;44.30
7254;DHT22;4060;49.186;9.226;2023-08-24T10:08:06;30.00;44.30
7254;DHT22;4060;49.186;9.226;2023-08-24T10:10:39;30.10;44.40
7254;DHT22;4060;49.186;9.226;2023-08-24T10:13:14;30.10;44.30
7254;DHT22;4060;49.186;9.226;2023-08-24T10:15:46;30.20;44.40
7254;DHT22;4060;49.186;9.226;2023-08-24T10:18:17;30.20;44.40
7254;DHT22;4060;49.186;9.226;2023-08-24T10:20:48;30.20;44.50
7254;DHT22;4060;49.186;9.226;2023-08-24T10:23:21;30.30;44.50
7254;DHT22;4060;49.186;9.226;2023-08-24T10:25:52;30.30;44.60
7254;DHT22;4060;49.186;9.226;2023-08-24T10:28:24;30.30;44.50
7254;DHT22;4060;49.186;9.226;2023-08-24T10:30:54;30.40;44.50
7254;DHT22;4060;49.186;9.226;2023-08-24T10:33:24;30.40;44.30
7254;DHT22;4060;49.186;9.226;2023-08-24T10:35:55;30.40;44.30
7254;DHT22;4060;49.186;9.226;2023-08-24T10:38:27;30.50;44.30
7254;DHT22;4060;49.186;9.226;2023-08-24T10:41:02;30.40;44.20
7254;DHT22;4060;49.186;9.226;2023-08-24T10:43:35;30.50;44.30
7254;DHT22;4060;49.186;9.226;2023-08-24T10:46:12;30.50;44.20
7254;DHT22;4060;49.186;9.226;2023-08-24T10:48:59;30.50;44.30
7254;DHT22;4060;49.186;9.226;2023-08-24T10:51:29;30.60;44.20
7254;DHT22;4060;49.186;9.226;2023-08-24T10:54:01;30.60;44.10
7254;DHT22;4060;49.186;9.226;2023-08-24T10:56:34;30.60;44.10
7254;DHT22;4060;49.186;9.226;2023-08-24T10:59:15;30.70;44.20
7254;DHT22;4060;49.186;9.226;2023-08-24T11:01:55;30.70;44.20
7254;DHT22;4060;49.186;9.226;2023-08-24T11:04:25;30.70;44.10
7254;DHT22;4060;49.186;9.226;2023-08-24T11:06:55;30.70;44.00
7254;DHT22;4060;49.186;9.226;2023-08-24T11:09:45;30.80;44.60
7254;DHT22;4060;49.186;9.226;2023-08-24T11:12:15;30.80;44.00
7254;DHT22;4060;49.186;9.226;2023-08-24T11:14:50;30.80;43.90
7254;DHT22;4060;49.186;9.226;2023-08-24T11:17:21;30.90;44.00
7254;DHT22;4060;49.186;9.226;2023-08-24T11:19:51;30.90;43.90
7254;DHT22;4060;49.186;9.226;2023-08-24T11:22:21;30.90;43.90
7254;DHT22;4060;49.186;9.226;2023-08-24T11:24:53;31.00;43.90
7254;DHT22;4060;49.186;9.226;2023-08-24T11:27:22;31.00;43.80
7254;DHT22;4060;49.186;9.226;2023-08-24T11:29:59;31.00;43.80
7254;DHT22;4060;49.186;9.226;2023-08-24T11:32:30;31.00;43.70
7254;DHT22;4060;49.186;9.226;2023-08-24T11:35:00;31.10;43.80
7254;DHT22;4060;49.186;9.226;2023-08-24T11:37:31;31.10;43.80
7254;DHT22;4060;49.186;9.226;2023-08-24T11:40:02;31.20;43.80
7254;DHT22;4060;49.186;9.226;2023-08-24T11:42:37;31.20;43.70
7254;DHT22;4060;49.186;9.226;2023-08-24T11:45:13;31.20;43.60
7254;DHT22;4060;49.186;9.226;2023-08-24T11:47:43;31.30;43.60
7254;DHT22;4060;49.186;9.226;2023-08-24T11:50:12;31.30;43.50
7254;DHT22;4060;49.186;9.226;2023-08-24T11:52:42;31.30;43.50
7254;DHT22;4060;49.186;9.226;2023-08-24T11:55:13;31.40;43.60
7254;DHT22;4060;49.186;9.226;2023-08-24T11:57:43;31.40;43.50
7254;DHT22;4060;49.186;9.226;2023-08-24T12:00:13;31.40;43.40
7254;DHT22;4060;49.186;9.226;2023-08-24T12:02:44;31.50;43.40
7254;DHT22;4060;49.186;9.226;2023-08-24T12:05:24;31.50;43.30
7254;DHT22;4060;49.186;9.226;2023-08-24T12:07:54;31.60;43.30
7254;DHT22;4060;49.186;9.226;2023-08-24T12:10:25;31.60;43.20
7254;DHT22;4060;49.186;9.226;2023-08-24T12:13:03;31.60;43.10
7254;DHT22;4060;49.186;9.226;2023-08-24T12:15:35;31.70;43.10
7254;DHT22;4060;49.186;9.226;2023-08-24T12:18:12;31.70;43.10
7254;DHT22;4060;49.186;9.226;2023-08-24T12:20:44;31.70;43.10
7254;DHT22;4060;49.186;9.226;2023-08-24T12:23:28;31.80;43.10
7254;DHT22;4060;49.186;9.226;2023-08-24T12:26:00;31.80;43.10
7254;DHT22;4060;49.186;9.226;2023-08-24T12:28:30;31.90;43.10
7254;DHT22;4060;49.186;9.226;2023-08-24T12:31:00;31.90;43.00
7254;DHT22;4060;49.186;9.226;2023-08-24T12:33:31;32.00;43.00
7254;DHT22;4060;49.186;9.226;2023-08-24T12:36:01;32.00;42.90
7254;DHT22;4060;49.186;9.226;2023-08-24T12:38:31;32.00;42.80
7254;DHT22;4060;49.186;9.226;2023-08-24T12:41:04;32.10;42.80
7254;DHT22;4060;49.186;9.226;2023-08-24T12:43:33;32.10;42.80
7254;DHT22;4060;49.186;9.226;2023-08-24T12:46:03;32.10;42.70
7254;DHT22;4060;49.186;9.226;2023-08-24T12:48:33;32.20;42.70
7254;DHT22;4060;49.186;9.226;2023-08-24T12:51:02;32.30;42.70
7254;DHT22;4060;49.186;9.226;2023-08-24T12:53:32;32.30;42.70
7254;DHT22;4060;49.186;9.226;2023-08-24T12:56:04;32.30;42.80
7254;DHT22;4060;49.186;9.226;2023-08-24T12:58:33;32.30;42.80
7254;DHT22;4060;49.186;9.226;2023-08-24T13:01:03;32.40;42.70
7254;DHT22;4060;49.186;9.226;2023-08-24T13:03:33;32.40;42.60
7254;DHT22;4060;49.186;9.226;2023-08-24T13:06:03;32.50;42.60
7254;DHT22;4060;49.186;9.226;2023-08-24T13:08:33;32.50;42.50
7254;DHT22;4060;49.186;9.226;2023-08-24T13:11:05;32.50;42.50
7254;DHT22;4060;49.186;9.226;2023-08-24T13:13:34;32.60;42.50
7254;DHT22;4060;49.186;9.226;2023-08-24T13:16:04;32.60;42.50
7254;DHT22;4060;49.186;9.226;2023-08-24T13:18:34;32.60;42.40
7254;DHT22;4060;49.186;9.226;2023-08-24T13:21:04;32.70;42.50
7254;DHT22;4060;49.186;9.226;2023-08-24T13:23:33;32.70;42.50
7254;DHT22;4060;49.186;9.226;2023-08-24T13:26:05;32.70;42.50
7254;DHT22;4060;49.186;9.226;2023-08-24T13:28:36;32.70;42.50
7254;DHT22;4060;49.186;9.226;2023-08-24T13:31:05;32.80;42.50
7254;DHT22;4060;49.186;9.226;2023-08-24T13:33:35;32.80;42.40
7254;DHT22;4060;49.186;9.226;2023-08-24T13:36:05;32.80;42.30
7254;DHT22;4060;49.186;9.226;2023-08-24T13:38:34;32.90;42.30
7254;DHT22;4060;49.186;9.226;2023-08-24T13:41:06;32.90;42.20
7254;DHT22;4060;49.186;9.226;2023-08-24T13:43:35;33.00;42.30
7254;DHT22;4060;49.186;9.226;2023-08-24T13:46:05;33.00;42.20
7254;DHT22;4060;49.186;9.226;2023-08-24T13:48:35;33.00;42.10
7254;DHT22;4060;49.186;9.226;2023-08-24T13:51:04;33.00;42.10
7254;DHT22;4060;49.186;9.226;2023-08-24T13:53:35;33.10;42.10
7254;DHT22;4060;49.186;9.226;2023-08-24T13:56:06;33.10;42.10
7254;DHT22;4060;49.186;9.226;2023-08-24T13:58:36;33.10;42.00
7254;DHT22;4060;49.186;9.226;2023-08-24T14:01:05;33.20;42.00
7254;DHT22;4060;49.186;9.226;2023-08-24T14:03:37;33.20;42.00
7254;DHT22;4060;49.186;9.226;2023-08-24T14:06:07;33.20;41.90
7254;DHT22;4060;49.186;9.226;2023-08-24T14:08:36;33.30;41.90
7254;DHT22;4060;49.186;9.226;2023-08-24T14:11:07;33.30;41.80
7254;DHT22;4060;49.186;9.226;2023-08-24T14:13:37;33.30;41.90
7254;DHT22;4060;49.186;9.226;2023-08-24T14:16:06;33.40;41.80
7254;DHT22;4060;49.186;9.226;2023-08-24T14:18:36;33.40;41.70
7254;DHT22;4060;49.186;9.226;2023-08-24T14:21:06;33.40;41.70
7254;DHT22;4060;49.186;9.226;2023-08-24T14:23:36;33.40;41.70
7254;DHT22;4060;49.186;9.226;2023-08-24T14:26:07;33.40;41.70
7254;DHT22;4060;49.186;9.226;2023-08-24T14:28:50;33.50;41.70
7254;DHT22;4060;49.186;9.226;2023-08-24T14:31:21;33.50;41.70
7254;DHT22;4060;49.186;9.226;2023-08-24T14:33:50;33.50;41.70
7254;DHT22;4060;49.186;9.226;2023-08-24T14:36:22;33.60;41.60
7254;DHT22;4060;49.186;9.226;2023-08-24T14:38:52;33.60;41.60
7254;DHT22;4060;49.186;9.226;2023-08-24T14:41:23;33.60;41.60
7254;DHT22;4060;49.186;9.226;2023-08-24T14:43:54;33.60;41.50
7254;DHT22;4060;49.186;9.226;2023-08-24T14:46:23;33.70;41.50
7254;DHT22;4060;49.186;9.226;2023-08-24T14:48:52;33.70;41.40
7254;DHT22;4060;49.186;9.226;2023-08-24T14:51:22;33.70;41.30
7254;DHT22;4060;49.186;9.226;2023-08-24T14:53:52;33.70;41.20
7254;DHT22;4060;49.186;9.226;2023-08-24T14:56:23;33.70;41.20
7254;DHT22;4060;49.186;9.226;2023-08-24T14:58:53;33.70;41.10
7254;DHT22;4060;49.186;9.226;2023-08-24T15:01:22;33.80;41.10
7254;DHT22;4060;49.186;9.226;2023-08-24T15:03:52;33.80;41.10
7254;DHT22;4060;49.186;9.226;2023-08-24T15:06:21;33.90;41.10
7254;DHT22;4060;49.186;9.226;2023-08-24T15:08:50;33.80;41.10
7254;DHT22;4060;49.186;9.226;2023-08-24T15:11:20;33.90;41.10
7254;DHT22;4060;49.186;9.226;2023-08-24T15:13:52;33.80;41.10
7254;DHT22;4060;49.186;9.226;2023-08-24T15:16:22;33.90;41.30
7254;DHT22;4060;49.186;9.226;2023-08-24T15:18:51;33.90;41.50
7254;DHT22;4060;49.186;9.226;2023-08-24T15:21:21;33.90;41.60
7254;DHT22;4060;49.186;9.226;2023-08-24T15:23:50;33.90;42.00
7254;DHT22;4060;49.186;9.226;2023-08-24T15:26:20;33.90;42.10
7254;DHT22;4060;49.186;9.226;2023-08-24T15:29:12;33.80;42.20
7254;DHT22;4060;49.186;9.226;2023-08-24T15:31:42;33.80;42.80
7254;DHT22;4060;49.186;9.226;2023-08-24T15:34:12;33.80;43.10
7254;DHT22;4060;49.186;9.226;2023-08-24T15:36:41;33.80;43.50
7254;DHT22;4060;49.186;9.226;2023-08-24T15:39:10;33.70;43.60
7254;DHT22;4060;49.186;9.226;2023-08-24T15:41:40;33.80;43.80
7254;DHT22;4060;49.186;9.226;2023-08-24T15:44:12;33.70;43.90
7254;DHT22;4060;49.186;9.226;2023-08-24T15:46:41;33.70;44.30
7254;DHT22;4060;49.186;9.226;2023-08-24T15:49:10;33.70;44.30
7254;DHT22;4060;49.186;9.226;2023-08-24T15:51:40;33.70;44.50
7254;DHT22;4060;49.186;9.226;2023-08-24T15:54:09;33.70;44.60
7254;DHT22;4060;49.186;9.226;2023-08-24T15:56:39;33.70;44.70
7254;DHT22;4060;49.186;9.226;2023-08-24T15:59:13;33.70;44.70
7254;DHT22;4060;49.186;9.226;2023-08-24T16:01:43;33.70;44.80
7254;DHT22;4060;49.186;9.226;2023-08-24T16:04:13;33.70;44.90
7254;DHT22;4060;49.186;9.226;2023-08-24T16:06:43;33.60;45.00
7254;DHT22;4060;49.186;9.226;2023-08-24T16:09:13;33.70;45.10
7254;DHT22;4060;49.186;9.226;2023-08-24T16:11:42;33.60;45.20
7254;DHT22;4060;49.186;9.226;2023-08-24T16:14:13;33.60;45.20
7254;DHT22;4060;49.186;9.226;2023-08-24T16:16:43;33.60;45.20
7254;DHT22;4060;49.186;9.226;2023-08-24T16:19:13;33.60;45.20
7254;DHT22;4060;49.186;9.226;2023-08-24T16:21:43;33.60;45.10
7254;DHT22;4060;49.186;9.226;2023-08-24T16:24:13;33.60;45.10
7254;DHT22;4060;49.186;9.226;2023-08-24T16:26:43;33.50;45.00